Terminal Aerodrome Forecast
Issued by NWS Louisville, KY

Home | Current Version | Previous Version | Text Only | Print | Product List | Glossary On
Versions: 1 2 3 4 5 6 7 8 9 10 11 12 13 14 15 16 17
000
FTUS43 KLMK 241700
TAFSDF
TAF
KSDF 241734Z 2418/2524 14012KT P6SM SCT150 BKN250
     FM250600 18014G22KT 4SM TSRA BKN050CB
     FM250900 20014KT P6SM BKN030
     FM251100 22014KT P6SM VCTS BKN025CB
     FM251400 28017G25KT P6SM BKN035
     FM251900 29016G23KT P6SM SCT050=

USA.gov is the U.S. government's official web portal to all federal, state and local government web resources and services.